Time;durP1;ratioP1;P1;durP2;ratioP2;P2;SDS_P1;SDS_P2;PMS_P1;PMS_P2;Temp;Humidity;BMP_temperature;BMP_pressure;BME280_temperature;BME280_humidity;BME280_pressure;Samples;Min_cycle;Max_cycle;Signal;HPM_P1;HPM_P2
2022/01/10 00:00:38;;;;;;;101.25;69.85;;;22.80;84.20;;;;;;1926660;73;21687;-80
2022/01/10 00:03:10;;;;;;;62.55;39.55;;;22.80;84.40;;;;;;1927912;73;21179;-80
2022/01/10 00:05:41;;;;;;;58.90;42.03;;;22.80;84.00;;;;;;1913942;73;21546;-80
2022/01/10 00:08:14;;;;;;;68.33;43.87;;;22.70;84.30;;;;;;1929994;73;21755;-80
2022/01/10 00:10:45;;;;;;;65.57;44.55;;;22.60;84.60;;;;;;1936681;73;21215;-80
2022/01/10 00:13:16;;;;;;;75.87;50.00;;;22.50;85.10;;;;;;1908813;73;21684;-80
2022/01/10 00:15:47;;;;;;;77.75;50.95;;;22.40;85.50;;;;;;1929328;73;21116;-80
2022/01/10 00:18:18;;;;;;;76.30;53.60;;;22.40;86.40;;;;;;1914134;74;21622;-80
2022/01/10 00:20:49;;;;;;;88.07;54.00;;;22.30;86.70;;;;;;1933073;72;21089;-79
2022/01/10 00:23:19;;;;;;;94.25;59.00;;;22.20;87.00;;;;;;1915109;73;21164;-82
2022/01/10 00:25:50;;;;;;;100.47;60.00;;;22.20;87.50;;;;;;1924140;73;21153;-82
2022/01/10 00:28:21;;;;;;;91.57;53.98;;;22.20;88.40;;;;;;1926803;73;21172;-81
2022/01/10 00:30:52;;;;;;;70.05;49.13;;;22.30;90.50;;;;;;1926568;73;21677;-82
2022/01/10 00:33:23;;;;;;;66.10;41.05;;;22.30;89.80;;;;;;1885711;74;21230;-82
2022/01/10 00:35:54;;;;;;;58.90;38.53;;;22.30;90.00;;;;;;1911017;73;21122;-82
2022/01/10 00:38:24;;;;;;;55.75;37.28;;;22.40;88.20;;;;;;1921710;73;21625;-82
2022/01/10 00:40:55;;;;;;;51.65;35.83;;;22.50;87.30;;;;;;1929184;73;21612;-82
2022/01/10 00:43:35;;;;;;;51.00;34.78;;;22.60;86.90;;;;;;1893595;73;21225;-82
2022/01/10 00:45:59;;;;;;;47.93;34.00;;;22.70;86.90;;;;;;1861966;75;21137;-82
2022/01/10 00:48:31;;;;;;;49.23;34.90;;;22.80;86.10;;;;;;1893408;73;21167;-82
2022/01/10 00:51:01;;;;;;;51.28;33.50;;;22.90;85.90;;;;;;1880396;73;21507;-83
2022/01/10 00:53:33;;;;;;;48.60;32.67;;;22.90;85.60;;;;;;1907765;73;21197;-82
2022/01/10 00:56:08;;;;;;;40.70;30.60;;;23.00;85.10;;;;;;1912302;73;21160;-82
2022/01/10 00:58:37;;;;;;;44.20;30.55;;;23.10;84.90;;;;;;1906093;73;21137;-82
2022/01/10 01:01:08;;;;;;;40.25;28.62;;;23.10;84.60;;;;;;1909790;74;21088;-82
2022/01/10 01:03:39;;;;;;;42.30;29.70;;;23.20;84.60;;;;;;1900749;73;21202;-83
2022/01/10 01:06:11;;;;;;;47.10;31.93;;;23.30;84.10;;;;;;1874714;74;21643;-82
2022/01/10 01:08:43;;;;;;;42.73;28.15;;;23.30;83.70;;;;;;1914098;73;21135;-82
2022/01/10 01:11:30;;;;;;;41.15;27.02;;;23.40;83.90;;;;;;1904355;72;21734;-81
2022/01/10 01:14:06;;;;;;;46.75;30.17;;;23.40;83.40;;;;;;1908625;73;21068;-81
2022/01/10 01:16:44;;;;;;;40.92;28.05;;;23.50;83.70;;;;;;1906090;73;21179;-81
2022/01/10 01:26:33;;;;;;;45.78;29.80;;;23.60;83.30;;;;;;1920493;73;21196;-81
2022/01/10 01:29:06;;;;;;;48.78;32.58;;;23.60;83.30;;;;;;1907898;73;21161;-81
2022/01/10 01:31:38;;;;;;;42.53;29.57;;;23.70;83.30;;;;;;1883689;74;21082;-81
2022/01/10 01:34:09;;;;;;;38.92;24.60;;;23.70;82.90;;;;;;1917962;73;21262;-82
2022/01/10 01:36:40;;;;;;;34.75;25.08;;;23.80;83.10;;;;;;1918764;73;21646;-82
2022/01/10 01:39:23;;;;;;;42.73;30.60;;;23.80;82.70;;;;;;1920921;73;21151;-82
2022/01/10 01:41:44;;;;;;;46.80;29.95;;;23.80;81.40;;;;;;1912172;73;21556;-82
2022/01/10 01:44:15;;;;;;;34.80;25.48;;;23.80;82.40;;;;;;1908230;73;21818;-81
2022/01/10 01:46:46;;;;;;;38.25;27.48;;;23.90;81.60;;;;;;1922312;74;21154;-84
2022/01/10 01:49:17;;;;;;;38.70;27.00;;;23.90;82.40;;;;;;1923524;73;21635;-83
2022/01/10 01:51:48;;;;;;;40.70;27.15;;;24.00;82.20;;;;;;1916393;74;21208;-84
2022/01/10 01:54:20;;;;;;;42.27;29.67;;;24.00;81.80;;;;;;1861960;75;21244;-83
2022/01/10 01:56:52;;;;;;;45.25;32.63;;;24.00;81.80;;;;;;1916891;74;21583;-84
2022/01/10 01:59:23;;;;;;;43.48;29.67;;;24.10;82.70;;;;;;1902081;73;21241;-83
2022/01/10 02:01:54;;;;;;;44.73;27.93;;;24.40;86.20;;;;;;1883004;74;21148;-85
2022/01/10 02:04:25;;;;;;;39.88;27.65;;;24.20;80.70;;;;;;1908985;73;21212;-83
2022/01/10 02:06:56;;;;;;;42.08;26.82;;;24.20;80.60;;;;;;1921525;73;21143;-83
2022/01/10 02:09:26;;;;;;;38.48;26.52;;;24.30;80.70;;;;;;1906040;73;21203;-83
2022/01/10 02:11:57;;;;;;;37.13;25.97;;;24.40;80.50;;;;;;1918725;72;21577;-84
2022/01/10 02:14:28;;;;;;;33.13;23.55;;;24.40;80.20;;;;;;1906023;73;21112;-83
2022/01/10 02:16:59;;;;;;;38.83;26.02;;;24.50;79.80;;;;;;1916535;74;21219;-83
2022/01/10 02:19:30;;;;;;;50.78;29.50;;;24.50;79.70;;;;;;1912305;72;21077;-83
2022/01/10 02:22:01;;;;;;;42.25;27.80;;;24.60;79.90;;;;;;1928600;73;21610;-83
2022/01/10 02:24:31;;;;;;;37.90;26.40;;;24.60;80.10;;;;;;1914088;73;21262;-83
2022/01/10 02:27:03;;;;;;;38.48;25.00;;;24.60;79.80;;;;;;1914002;74;21142;-83
2022/01/10 02:29:36;;;;;;;36.15;24.95;;;24.60;79.90;;;;;;1902045;73;21096;-83
2022/01/10 02:32:06;;;;;;;40.75;25.15;;;24.70;79.70;;;;;;1908312;73;21145;-83
2022/01/10 02:34:37;;;;;;;40.28;24.87;;;24.70;79.70;;;;;;1901624;73;21200;-83
2022/01/10 02:37:08;;;;;;;36.00;24.10;;;24.80;80.50;;;;;;1879463;75;21166;-83
2022/01/10 02:39:39;;;;;;;31.45;22.75;;;24.80;79.50;;;;;;1908946;73;21103;-81
2022/01/10 02:42:09;;;;;;;38.88;23.73;;;24.80;79.50;;;;;;1917270;72;21638;-84
2022/01/10 02:44:40;;;;;;;31.20;21.35;;;24.90;79.10;;;;;;1911764;73;21127;-83
2022/01/10 02:47:12;;;;;;;30.43;22.37;;;25.00;78.70;;;;;;1916313;73;21233;-83
2022/01/10 02:49:42;;;;;;;30.97;21.17;;;25.00;78.70;;;;;;1910554;73;21097;-83
2022/01/10 02:52:14;;;;;;;36.03;21.45;;;25.10;78.50;;;;;;1907246;73;21134;-84
2022/01/10 02:54:44;;;;;;;38.45;22.75;;;25.10;78.30;;;;;;1872771;75;21572;-82
2022/01/10 02:57:15;;;;;;;33.05;22.55;;;25.10;78.50;;;;;;1882793;75;21126;-83
2022/01/10 02:59:46;;;;;;;33.10;22.77;;;25.20;78.50;;;;;;1877240;74;21653;-83
2022/01/10 03:02:20;;;;;;;27.67;20.05;;;25.20;78.30;;;;;;1904878;72;21138;-84
2022/01/10 03:04:51;;;;;;;32.17;21.85;;;25.20;78.10;;;;;;1884161;73;21625;-84
2022/01/10 03:07:23;;;;;;;32.60;22.37;;;25.30;78.20;;;;;;1896608;74;21145;-84
2022/01/10 03:09:54;;;;;;;27.93;18.42;;;25.30;78.30;;;;;;1885337;73;21123;-84
2022/01/10 03:12:25;;;;;;;29.60;18.50;;;25.30;77.90;;;;;;1902141;73;21558;-84
2022/01/10 03:14:57;;;;;;;29.12;18.75;;;25.40;77.30;;;;;;1910181;74;21139;-84
2022/01/10 03:17:31;;;;;;;33.85;22.15;;;25.50;77.00;;;;;;1904542;73;21636;-92
2022/01/10 03:20:02;;;;;;;30.30;20.08;;;25.60;77.10;;;;;;1907079;74;21233;-82
2022/01/10 03:22:33;;;;;;;29.75;19.45;;;25.70;76.90;;;;;;1913101;74;21634;-83
2022/01/10 03:25:05;;;;;;;28.60;18.10;;;25.70;76.90;;;;;;1908827;73;21170;-83
2022/01/10 03:27:35;;;;;;;24.00;16.15;;;25.80;76.30;;;;;;1892316;74;21136;-83
2022/01/10 03:30:07;;;;;;;25.52;17.17;;;25.90;75.50;;;;;;1886824;74;21203;-83
2022/01/10 03:32:38;;;;;;;25.68;15.88;;;26.00;75.20;;;;;;1918519;73;21223;-83
2022/01/10 03:35:09;;;;;;;24.45;16.85;;;26.10;74.90;;;;;;1879268;74;21139;-84
2022/01/10 03:37:40;;;;;;;22.75;15.43;;;26.20;74.70;;;;;;1878486;75;21186;-83
2022/01/10 03:40:11;;;;;;;27.25;14.90;;;26.30;74.20;;;;;;1911387;74;21222;-83
2022/01/10 03:42:42;;;;;;;23.02;14.60;;;26.40;73.70;;;;;;1917392;74;21737;-83
2022/01/10 03:45:13;;;;;;;22.60;12.23;;;26.50;73.40;;;;;;1914537;74;21218;-83
2022/01/10 03:47:44;;;;;;;16.97;12.28;;;26.60;73.10;;;;;;1926252;73;21125;-84
2022/01/10 03:50:15;;;;;;;15.58;10.70;;;26.70;72.20;;;;;;1926269;73;21183;-84
2022/01/10 03:52:46;;;;;;;22.10;12.53;;;26.80;70.80;;;;;;1909797;73;21624;-83
2022/01/10 03:55:16;;;;;;;19.27;14.43;;;26.90;70.20;;;;;;1918898;73;21172;-82
2022/01/10 03:57:48;;;;;;;23.73;14.80;;;27.10;69.00;;;;;;1925366;73;21280;-81
2022/01/10 04:00:19;;;;;;;21.00;12.63;;;27.10;68.80;;;;;;1922843;73;21109;-82
2022/01/10 04:03:06;;;;;;;23.12;13.20;;;27.20;68.30;;;;;;1940940;73;21141;-81
2022/01/10 04:05:22;;;;;;;23.47;13.03;;;27.30;68.70;;;;;;1930013;73;21230;-82
2022/01/10 04:07:53;;;;;;;18.15;12.40;;;27.40;68.50;;;;;;1937183;73;21202;-82
2022/01/10 04:10:23;;;;;;;20.45;13.68;;;27.50;67.70;;;;;;1920607;73;21078;-84
2022/01/10 04:12:54;;;;;;;24.95;13.28;;;27.60;67.10;;;;;;1905637;73;21547;-84
2022/01/10 04:15:25;;;;;;;20.65;13.28;;;27.80;66.60;;;;;;1919061;74;21143;-83
2022/01/10 04:17:59;;;;;;;22.10;14.80;;;27.90;66.90;;;;;;1936804;72;21636;-83
2022/01/10 04:20:28;;;;;;;14.00;10.82;;;28.00;66.40;;;;;;1913558;73;21225;-84
2022/01/10 04:22:59;;;;;;;19.32;11.03;;;28.20;63.60;;;;;;1923106;74;21249;-84
2022/01/10 04:25:30;;;;;;;19.75;12.28;;;28.30;63.60;;;;;;1924357;74;21634;-83
2022/01/10 04:28:01;;;;;;;19.75;11.40;;;28.50;62.80;;;;;;1925969;73;21171;-83
2022/01/10 04:30:32;;;;;;;16.57;10.88;;;28.60;63.00;;;;;;1923554;74;21100;-83
2022/01/10 04:33:04;;;;;;;17.23;11.97;;;28.70;62.80;;;;;;1913716;73;21197;-83
2022/01/10 04:35:35;;;;;;;22.02;13.40;;;28.80;61.90;;;;;;1888832;73;21095;-84
2022/01/10 04:38:07;;;;;;;20.85;12.58;;;28.90;61.20;;;;;;1885366;75;21209;-83
2022/01/10 04:40:41;;;;;;;17.98;12.80;;;29.00;61.40;;;;;;1876993;74;21170;-85
2022/01/10 04:43:12;;;;;;;21.73;11.97;;;29.10;60.40;;;;;;1879350;75;21156;-84
2022/01/10 04:45:43;;;;;;;22.40;13.15;;;29.30;59.20;;;;;;1910277;73;21300;-84
2022/01/10 04:48:18;;;;;;;18.35;12.90;;;29.30;59.90;;;;;;1903430;72;21579;-84
2022/01/10 04:53:24;;;;;;;17.12;12.03;;;29.50;60.30;;;;;;1937470;72;21208;-85
2022/01/10 04:55:55;;;;;;;18.07;12.88;;;29.50;60.60;;;;;;1929637;73;21144;-84
2022/01/10 04:58:26;;;;;;;17.30;12.88;;;29.60;59.50;;;;;;1920151;73;21191;-84
2022/01/10 05:00:57;;;;;;;17.87;11.78;;;29.70;58.60;;;;;;1924451;73;21168;-84
2022/01/10 05:03:28;;;;;;;18.75;13.15;;;29.70;58.40;;;;;;1903167;73;21216;-85
2022/01/10 05:05:59;;;;;;;17.80;12.75;;;29.70;58.40;;;;;;1879865;75;21509;-86
2022/01/10 05:08:30;;;;;;;21.40;13.72;;;29.80;58.10;;;;;;1875996;74;21260;-84
2022/01/10 05:11:01;;;;;;;23.60;13.00;;;29.80;58.30;;;;;;1882156;74;21174;-83
2022/01/10 05:13:33;;;;;;;19.02;13.22;;;29.90;58.00;;;;;;1908739;73;21166;-82
2022/01/10 05:16:04;;;;;;;21.35;13.15;;;30.00;57.10;;;;;;1911317;73;21263;-84
2022/01/10 05:18:38;;;;;;;19.77;12.55;;;30.10;57.70;;;;;;1909491;73;21158;-84
2022/01/10 05:21:08;;;;;;;18.45;11.33;;;30.10;58.00;;;;;;1864977;76;21189;-84
2022/01/10 05:23:39;;;;;;;18.00;11.83;;;30.20;60.30;;;;;;1925876;72;21259;-83
2022/01/10 05:26:10;;;;;;;16.55;12.03;;;30.30;58.50;;;;;;1912196;73;21173;-82
2022/01/10 05:28:41;;;;;;;18.80;12.53;;;30.40;57.50;;;;;;1899286;72;21212;-84
2022/01/10 05:31:12;;;;;;;16.52;11.70;;;30.50;57.50;;;;;;1862462;75;21115;-84
2022/01/10 05:33:44;;;;;;;18.90;12.20;;;30.60;57.10;;;;;;1864548;75;21989;-83
2022/01/10 05:36:15;;;;;;;16.57;12.35;;;30.70;56.30;;;;;;1879866;75;21127;-83
2022/01/10 05:38:46;;;;;;;19.10;12.05;;;30.70;56.20;;;;;;1901615;74;21644;-82
2022/01/10 05:41:17;;;;;;;17.82;12.80;;;30.90;56.30;;;;;;1889668;74;21260;-83
2022/01/10 05:43:48;;;;;;;18.73;12.53;;;31.00;56.10;;;;;;1906683;74;21167;-83
2022/01/10 05:46:21;;;;;;;16.27;12.35;;;31.10;56.10;;;;;;1903153;73;21641;-83
2022/01/10 05:48:53;;;;;;;19.20;11.25;;;31.10;56.00;;;;;;1862895;75;21134;-81
2022/01/10 05:51:36;;;;;;;16.48;10.58;;;31.10;54.90;;;;;;1893085;72;21247;-83
2022/01/10 05:54:04;;;;;;;17.50;11.18;;;31.20;54.50;;;;;;1919028;73;21115;-82
2022/01/10 05:56:36;;;;;;;19.27;11.63;;;31.20;55.00;;;;;;1917253;73;21184;-82
2022/01/10 05:59:07;;;;;;;20.05;11.73;;;31.30;54.40;;;;;;1882770;74;21688;-81
2022/01/10 06:01:38;;;;;;;17.27;11.63;;;31.30;55.50;;;;;;1870803;74;21218;-82
2022/01/10 06:04:09;;;;;;;20.12;11.38;;;31.40;54.60;;;;;;1864645;75;21769;-82
2022/01/10 06:06:40;;;;;;;13.30;9.93;;;31.40;54.50;;;;;;1908916;74;21171;-82
2022/01/10 06:09:10;;;;;;;19.57;10.78;;;31.40;53.80;;;;;;1899003;72;21132;-82
2022/01/10 06:11:41;;;;;;;14.75;9.78;;;31.40;53.70;;;;;;1917186;73;21123;-83
2022/01/10 06:14:12;;;;;;;14.05;9.48;;;31.50;53.60;;;;;;1895831;74;21170;-81
2022/01/10 06:16:43;;;;;;;15.38;9.30;;;31.50;52.30;;;;;;1904909;73;21092;-81
2022/01/10 06:19:14;;;;;;;12.53;8.95;;;31.50;52.40;;;;;;1913573;74;21205;-82
2022/01/10 06:24:49;;;;;;;15.08;9.50;;;31.60;53.20;;;;;;1909998;73;21558;-80
2022/01/10 06:27:20;;;;;;;16.77;9.08;;;31.60;53.60;;;;;;1895638;74;21801;-81
2022/01/10 06:29:51;;;;;;;18.75;10.48;;;31.60;52.40;;;;;;1910171;73;21087;-81
2022/01/10 06:32:21;;;;;;;12.37;8.40;;;31.60;52.10;;;;;;1913175;73;21103;-82
2022/01/10 06:34:52;;;;;;;13.85;9.13;;;31.70;50.50;;;;;;1867510;74;21134;-80
2022/01/10 06:37:23;;;;;;;11.97;8.70;;;31.80;50.60;;;;;;1908186;73;21101;-81
2022/01/10 06:39:54;;;;;;;14.63;10.08;;;31.80;50.50;;;;;;1911571;73;21329;-82
2022/01/10 06:42:25;;;;;;;11.28;8.50;;;31.70;51.30;;;;;;1903542;72;21144;-84
2022/01/10 06:44:59;;;;;;;11.48;7.85;;;31.70;50.90;;;;;;1920555;72;21200;-84
2022/01/10 06:47:29;;;;;;;9.25;7.62;;;31.70;50.80;;;;;;1905674;73;21654;-83
2022/01/10 06:50:00;;;;;;;14.90;9.53;;;31.70;49.80;;;;;;1915325;73;21631;-83
2022/01/10 06:52:31;;;;;;;14.03;8.15;;;31.70;48.70;;;;;;1914394;74;21146;-83
2022/01/10 06:55:04;;;;;;;12.45;9.00;;;31.70;49.20;;;;;;1913817;74;21722;-82
2022/01/10 06:57:35;;;;;;;13.48;8.90;;;31.70;47.70;;;;;;1893414;73;21673;-84
2022/01/10 07:00:08;;;;;;;11.35;7.65;;;31.60;47.80;;;;;;1899973;73;21221;-85
2022/01/10 07:02:39;;;;;;;11.30;7.55;;;31.70;48.00;;;;;;1913806;73;21184;-69
2022/01/10 07:05:10;;;;;;;11.03;7.50;;;31.70;47.70;;;;;;1873195;74;21090;-70
2022/01/10 07:07:41;;;;;;;14.65;9.13;;;31.70;48.20;;;;;;1896384;74;21270;-70
2022/01/10 07:10:12;;;;;;;11.85;7.28;;;31.70;47.20;;;;;;1898170;74;21213;-70
2022/01/10 07:12:43;;;;;;;10.85;6.70;;;31.80;45.90;;;;;;1914001;72;21245;-70
2022/01/10 07:15:17;;;;;;;13.75;7.85;;;31.90;45.90;;;;;;1903840;73;21099;-70
2022/01/10 07:17:50;;;;;;;13.40;7.50;;;32.00;44.40;;;;;;1912602;73;21106;-70
2022/01/10 07:20:21;;;;;;;11.83;8.03;;;32.00;43.90;;;;;;1901210;73;21226;-70
2022/01/10 07:22:51;;;;;;;8.58;6.47;;;32.00;43.60;;;;;;1914338;73;21123;-70
2022/01/10 07:25:22;;;;;;;10.25;7.03;;;31.90;42.50;;;;;;1912917;73;21646;-71
2022/01/10 07:27:53;;;;;;;13.10;8.43;;;31.80;42.50;;;;;;1906742;73;21621;-70
2022/01/10 07:30:25;;;;;;;13.78;8.03;;;31.80;42.20;;;;;;1884097;73;21801;-70
2022/01/10 07:32:56;;;;;;;13.03;7.17;;;31.70;42.90;;;;;;1910465;73;21129;-70
2022/01/10 07:35:27;;;;;;;11.43;6.90;;;31.80;41.90;;;;;;1930622;73;21126;-70
2022/01/10 07:37:58;;;;;;;7.92;6.00;;;31.80;42.50;;;;;;1931602;73;21180;-70
2022/01/10 07:40:29;;;;;;;10.55;6.35;;;31.80;41.90;;;;;;1908755;73;21131;-70
2022/01/10 07:43:00;;;;;;;9.68;6.00;;;31.90;40.60;;;;;;1920463;74;21183;-71
2022/01/10 07:45:31;;;;;;;9.98;6.30;;;31.90;41.10;;;;;;1929590;73;21085;-71
2022/01/10 07:48:03;;;;;;;10.35;6.15;;;31.80;42.10;;;;;;1899807;73;21547;-71
2022/01/10 07:50:34;;;;;;;9.70;6.17;;;32.00;41.90;;;;;;1855783;75;21474;-72
2022/01/10 07:53:05;;;;;;;10.53;6.35;;;32.00;41.10;;;;;;1881158;75;21142;-72
2022/01/10 07:55:36;;;;;;;9.60;5.55;;;32.10;41.50;;;;;;1910568;73;21351;-72
2022/01/10 07:58:06;;;;;;;8.90;6.47;;;32.10;41.80;;;;;;1902597;73;21094;-71
2022/01/10 08:00:37;;;;;;;7.92;5.62;;;32.00;41.30;;;;;;1919192;73;21652;-71
2022/01/10 08:03:08;;;;;;;9.25;5.80;;;32.00;40.20;;;;;;1906877;74;21181;-72
2022/01/10 08:05:40;;;;;;;12.47;6.62;;;32.00;40.30;;;;;;1913620;73;21608;-72
2022/01/10 08:08:10;;;;;;;8.23;5.97;;;32.00;41.30;;;;;;1896318;73;21665;-72
2022/01/10 08:10:41;;;;;;;8.30;5.83;;;32.00;41.30;;;;;;1907617;73;21754;-71
2022/01/10 08:13:12;;;;;;;11.48;7.17;;;32.00;40.30;;;;;;1915712;73;21218;-71
2022/01/10 08:15:43;;;;;;;10.40;6.28;;;32.00;40.60;;;;;;1909192;74;21088;-70
2022/01/10 08:18:14;;;;;;;10.30;5.90;;;32.00;38.70;;;;;;1907900;72;21596;-70
2022/01/10 08:20:45;;;;;;;6.97;4.95;;;32.00;38.30;;;;;;1911467;73;21225;-70
2022/01/10 08:23:15;;;;;;;6.80;4.17;;;32.00;35.90;;;;;;1912011;73;21209;-70
2022/01/10 08:25:46;;;;;;;8.40;5.00;;;32.00;35.20;;;;;;1919036;73;21088;-70
2022/01/10 08:28:17;;;;;;;11.63;6.22;;;32.00;35.90;;;;;;1905041;73;21644;-70
2022/01/10 08:30:48;;;;;;;10.40;6.42;;;32.00;39.00;;;;;;1909595;73;21207;-70
2022/01/10 08:33:19;;;;;;;12.78;7.72;;;32.00;39.30;;;;;;1907100;73;21208;-70
2022/01/10 08:35:51;;;;;;;7.80;6.37;;;32.00;39.60;;;;;;1903289;74;21750;-70
2022/01/10 08:38:22;;;;;;;10.68;6.75;;;32.00;40.00;;;;;;1907606;74;21201;-70
2022/01/10 08:40:54;;;;;;;9.58;6.25;;;32.00;40.60;;;;;;1898489;73;21162;-70
2022/01/10 08:43:25;;;;;;;8.08;6.30;;;31.90;41.20;;;;;;1893613;74;21113;-70
2022/01/10 08:45:55;;;;;;;17.02;8.33;;;31.90;41.60;;;;;;1886011;74;21167;-70
2022/01/10 08:48:26;;;;;;;11.63;7.28;;;31.80;42.20;;;;;;1906044;74;21288;-70
2022/01/10 08:50:57;;;;;;;13.53;7.20;;;31.80;42.80;;;;;;1908493;74;21115;-70
2022/01/10 08:53:28;;;;;;;12.45;8.93;;;31.80;42.60;;;;;;1877021;74;21146;-70
2022/01/10 08:55:59;;;;;;;12.88;6.97;;;31.70;43.10;;;;;;1862005;74;21166;-69
2022/01/10 08:58:32;;;;;;;8.25;6.45;;;31.60;42.50;;;;;;1903269;73;21107;-70
2022/01/10 09:01:05;;;;;;;11.00;7.95;;;31.50;41.50;;;;;;1882725;73;21656;-70
2022/01/10 09:03:38;;;;;;;12.50;7.45;;;31.40;42.60;;;;;;1904245;74;21140;-70
2022/01/10 09:06:08;;;;;;;10.38;7.25;;;31.50;43.30;;;;;;1907577;73;21142;-72
2022/01/10 09:08:42;;;;;;;11.48;6.87;;;31.40;43.30;;;;;;1879910;74;21160;-73
2022/01/10 09:11:13;;;;;;;10.90;6.70;;;31.40;43.80;;;;;;1889332;74;21147;-72
2022/01/10 09:13:44;;;;;;;13.60;7.05;;;31.30;43.90;;;;;;1912876;73;21154;-70
2022/01/10 09:16:15;;;;;;;8.88;5.87;;;31.30;43.70;;;;;;1887967;74;21624;-72
2022/01/10 09:18:46;;;;;;;9.53;6.25;;;31.30;42.50;;;;;;1878067;75;21786;-69
2022/01/10 09:21:17;;;;;;;11.95;6.50;;;31.30;42.40;;;;;;1881501;74;21247;-70
2022/01/10 09:23:47;;;;;;;10.93;7.12;;;31.30;42.50;;;;;;1904326;73;21094;-70
2022/01/10 09:26:37;;;;;;;13.95;7.28;;;31.30;43.20;;;;;;1909931;74;21224;-71
2022/01/10 09:29:08;;;;;;;11.70;7.28;;;31.30;43.90;;;;;;1795728;77;21186;-71
2022/01/10 09:31:39;;;;;;;13.38;6.97;;;31.30;44.10;;;;;;1804231;77;21175;-77
2022/01/10 09:34:11;;;;;;;14.68;6.83;;;31.30;43.70;;;;;;1796521;77;21310;-75
2022/01/10 09:36:42;;;;;;;11.05;7.40;;;31.30;43.90;;;;;;1814261;77;21194;-72
2022/01/10 09:39:13;;;;;;;10.43;6.42;;;31.20;44.70;;;;;;1801146;77;21180;-74
2022/01/10 09:41:44;;;;;;;10.10;6.50;;;31.20;43.50;;;;;;1806982;77;21724;-78
2022/01/10 09:44:16;;;;;;;17.40;8.33;;;31.20;44.10;;;;;;1821983;77;21652;-74
2022/01/10 09:46:48;;;;;;;10.78;6.47;;;31.20;44.50;;;;;;1794592;77;21118;-72
2022/01/10 09:49:19;;;;;;;9.40;5.87;;;31.10;44.10;;;;;;1822133;77;21571;-73
2022/01/10 09:51:51;;;;;;;10.05;6.87;;;31.10;43.30;;;;;;1813047;77;21246;-72
2022/01/10 09:54:21;;;;;;;10.65;6.03;;;31.10;43.70;;;;;;1810705;77;21165;-75
2022/01/10 09:56:52;;;;;;;15.08;6.58;;;31.10;43.10;;;;;;1799265;77;21194;-76
2022/01/10 09:59:24;;;;;;;18.80;9.58;;;31.10;42.70;;;;;;1765410;79;21187;-73
2022/01/10 10:01:54;;;;;;;13.32;7.70;;;31.10;43.80;;;;;;1803576;78;21213;-75
2022/01/10 10:04:26;;;;;;;13.58;7.20;;;31.00;43.70;;;;;;1801536;77;21234;-75
2022/01/10 10:06:58;;;;;;;6.92;5.78;;;31.00;44.30;;;;;;1807951;77;21119;-75
2022/01/10 10:09:33;;;;;;;13.23;7.27;;;30.90;43.00;;;;;;1793427;78;21646;-76
2022/01/10 10:12:06;;;;;;;12.00;6.58;;;30.90;43.50;;;;;;1798924;77;21216;-74
2022/01/10 10:14:41;;;;;;;10.28;6.67;;;30.90;43.60;;;;;;1766018;78;21201;-76
2022/01/10 10:17:17;;;;;;;15.75;7.92;;;30.90;44.20;;;;;;1778834;79;21182;-75
2022/01/10 10:19:46;;;;;;;16.82;6.62;;;30.80;44.40;;;;;;1807704;78;21238;-74
2022/01/10 10:22:20;;;;;;;11.45;6.53;;;30.70;43.90;;;;;;1813703;78;21144;-79
2022/01/10 10:24:53;;;;;;;;;;;30.70;44.00;;;;;;1779476;79;21277;-84
2022/01/10 10:27:32;;;;;;;12.20;8.95;;;30.60;44.40;;;;;;1779310;79;20170;-84
2022/01/10 10:30:10;;;;;;;15.72;8.45;;;30.60;44.50;;;;;;1760601;80;21103;-84
2022/01/10 10:32:47;;;;;;;18.85;11.97;;;30.50;45.10;;;;;;1822373;77;21537;-85
2022/01/10 10:35:19;;;;;;;15.70;9.23;;;30.40;45.80;;;;;;1795568;77;21595;-83
2022/01/10 10:37:57;;;;;;;19.87;9.75;;;30.30;45.60;;;;;;1786646;78;21276;-84
2022/01/10 10:40:26;;;;;;;25.08;11.68;;;30.20;46.00;;;;;;1807015;78;21695;-84
2022/01/10 10:43:01;;;;;;;27.27;12.85;;;30.20;46.40;;;;;;1784643;77;21056;-84
2022/01/10 10:45:32;;;;;;;17.17;9.08;;;30.10;46.70;;;;;;1815421;77;21123;-84
2022/01/10 10:48:07;;;;;;;26.85;12.98;;;30.00;46.20;;;;;;1785518;79;21120;-84
2022/01/10 10:50:41;;;;;;;17.67;9.85;;;29.90;46.90;;;;;;1780509;80;21119;-83
2022/01/10 10:53:16;;;;;;;18.75;10.25;;;29.90;47.30;;;;;;1779511;79;21219;-84
2022/01/10 10:55:48;;;;;;;19.57;11.05;;;29.80;47.50;;;;;;1793735;78;21151;-84
2022/01/10 10:58:19;;;;;;;20.23;11.35;;;29.70;48.50;;;;;;1793807;78;21222;-84
2022/01/10 11:00:50;;;;;;;19.48;11.68;;;29.60;48.30;;;;;;1795033;78;21128;-83
2022/01/10 11:03:23;;;;;;;19.57;10.10;;;29.60;49.00;;;;;;1807033;76;21661;-83
2022/01/10 11:06:12;;;;;;;21.33;10.93;;;29.50;49.00;;;;;;1797733;78;21242;-83
2022/01/10 11:08:44;;;;;;;19.30;10.15;;;29.50;48.90;;;;;;1791621;78;21902;-82
2022/01/10 11:11:21;;;;;;;21.50;11.03;;;29.40;50.10;;;;;;1809679;77;21281;-83
2022/01/10 11:13:55;;;;;;;22.75;13.32;;;29.40;50.60;;;;;;1792477;79;21119;-83
2022/01/10 11:16:28;;;;;;;25.52;15.68;;;29.30;50.60;;;;;;1793960;77;21248;-84
2022/01/10 11:19:11;;;;;;;23.57;12.03;;;29.30;50.90;;;;;;1763068;80;21142;-84
2022/01/10 11:21:42;;;;;;;20.82;10.23;;;29.30;51.40;;;;;;1794739;78;21707;-84
2022/01/10 11:24:18;;;;;;;27.82;11.40;;;29.20;51.90;;;;;;1781348;79;21632;-84
2022/01/10 11:26:49;;;;;;;27.73;10.75;;;29.10;51.90;;;;;;1771663;78;21160;-83
2022/01/10 11:29:21;;;;;;;19.45;10.58;;;29.00;52.20;;;;;;1827171;77;21241;-84
2022/01/10 11:31:52;;;;;;;21.70;11.63;;;29.00;52.40;;;;;;1792841;78;21167;-83
2022/01/10 11:34:22;;;;;;;31.85;18.07;;;29.00;52.70;;;;;;1789696;79;21251;-84
2022/01/10 11:36:53;;;;;;;22.27;14.47;;;28.90;52.90;;;;;;1811123;78;21162;-84
2022/01/10 11:39:27;;;;;;;21.50;12.70;;;28.90;53.10;;;;;;1811582;77;21198;-82
2022/01/10 11:41:58;;;;;;;24.23;15.13;;;28.90;53.60;;;;;;1778573;79;21180;-82
2022/01/10 11:44:30;;;;;;;25.15;12.88;;;28.80;54.30;;;;;;1822008;76;21487;-83
2022/01/10 11:47:03;;;;;;;21.97;11.57;;;28.80;53.60;;;;;;1775472;78;21178;-83
2022/01/10 11:49:35;;;;;;;23.10;13.78;;;28.80;53.60;;;;;;1835865;77;21685;-83
2022/01/10 11:52:06;;;;;;;18.90;11.48;;;28.80;53.90;;;;;;1796224;78;21234;-83
2022/01/10 11:54:39;;;;;;;18.27;12.35;;;28.80;54.30;;;;;;1823848;77;21594;-83
2022/01/10 11:57:19;;;;;;;20.82;12.73;;;28.80;54.30;;;;;;1775845;78;21639;-83
2022/01/10 11:59:52;;;;;;;;;;;28.80;54.40;;;;;;1819170;76;21103;-83
2022/01/10 12:02:23;;;;;;;19.25;11.55;;;28.70;54.20;;;;;;1797494;77;20433;-84
2022/01/10 12:05:18;;;;;;;23.60;12.40;;;28.70;54.50;;;;;;1817501;76;21676;-84
2022/01/10 12:08:03;;;;;;;19.67;11.97;;;28.70;54.80;;;;;;1797155;77;21293;-83
2022/01/10 12:10:35;;;;;;;21.95;12.05;;;28.60;54.30;;;;;;1818120;77;22075;-85
2022/01/10 12:13:11;;;;;;;24.77;12.63;;;28.60;54.30;;;;;;1813139;77;21591;-84
2022/01/10 12:15:40;;;;;;;21.93;13.32;;;28.60;54.50;;;;;;1807034;77;21202;-84
2022/01/10 12:18:11;;;;;;;20.55;13.98;;;28.60;54.70;;;;;;1816470;77;21095;-84
2022/01/10 12:20:42;;;;;;;23.50;14.23;;;28.60;54.80;;;;;;1821188;76;21245;-83
2022/01/10 12:23:13;;;;;;;23.60;15.80;;;28.60;54.90;;;;;;1828387;77;21150;-84
2022/01/10 12:25:45;;;;;;;24.50;15.28;;;28.60;54.90;;;;;;1797780;77;21745;-83
2022/01/10 12:28:16;;;;;;;25.05;15.50;;;28.50;55.00;;;;;;1797705;77;21244;-83
2022/01/10 12:30:47;;;;;;;27.40;14.93;;;28.50;55.20;;;;;;1781919;78;21667;-84
2022/01/10 12:33:19;;;;;;;27.80;14.83;;;28.40;55.30;;;;;;1810198;77;21242;-84
2022/01/10 12:35:54;;;;;;;21.15;14.78;;;28.50;55.40;;;;;;1788246;78;21271;-87
2022/01/10 12:38:25;;;;;;;22.00;14.25;;;28.40;55.50;;;;;;1800007;77;21220;-84
2022/01/10 12:40:56;;;;;;;21.30;13.68;;;28.40;55.70;;;;;;1783304;78;21199;-85
2022/01/10 12:43:27;;;;;;;24.02;14.95;;;28.40;55.60;;;;;;1760710;78;21589;-84
2022/01/10 12:45:58;;;;;;;21.00;15.20;;;28.30;55.70;;;;;;1793184;78;22953;-85
2022/01/10 12:48:31;;;;;;;22.13;14.98;;;28.30;55.80;;;;;;1773582;78;21692;-85
2022/01/10 12:51:02;;;;;;;26.93;15.20;;;28.30;55.70;;;;;;1811579;77;21103;-85
2022/01/10 12:53:34;;;;;;;27.65;15.08;;;28.30;55.90;;;;;;1820245;77;21614;-81
2022/01/10 12:56:05;;;;;;;27.45;15.38;;;28.30;56.00;;;;;;1805607;77;21304;-84
2022/01/10 12:58:36;;;;;;;28.12;16.30;;;28.30;56.10;;;;;;1827037;75;21724;-84
2022/01/10 13:01:09;;;;;;;21.45;14.05;;;28.20;55.50;;;;;;1775366;79;21626;-83
2022/01/10 13:03:43;;;;;;;24.87;15.80;;;28.20;56.20;;;;;;1818300;77;21722;-84
2022/01/10 13:06:20;;;;;;;27.02;16.48;;;28.20;56.30;;;;;;1759865;78;21265;-84